Time;durP1;ratioP1;P1;durP2;ratioP2;P2;SDS_P1;SDS_P2;PMS_P1;PMS_P2;Temp;Humidity;BMP_temperature;BMP_pressure;BME280_temperature;BME280_humidity;BME280_pressure;Samples;Min_cycle;Max_cycle;Signal;HPM_P1;HPM_P2
2020/12/09 00:00:03;;;;;;;30.27;13.87;;;-0.20;99.90;;;;;;5090428;28;20205;-73
2020/12/09 00:02:29;;;;;;;29.27;14.20;;;-0.20;99.90;;;;;;5078698;28;20216;-72
2020/12/09 00:04:55;;;;;;;27.47;14.47;;;-0.20;99.90;;;;;;5078087;28;20212;-72
2020/12/09 00:07:22;;;;;;;25.87;13.87;;;-0.20;99.90;;;;;;5075547;28;20205;-72
2020/12/09 00:09:48;;;;;;;26.03;13.60;;;-0.20;99.90;;;;;;5092068;28;20287;-72
2020/12/09 00:12:16;;;;;;;32.00;13.53;;;-0.20;99.90;;;;;;5083644;28;20241;-72
2020/12/09 00:14:43;;;;;;;24.73;13.50;;;-0.20;99.90;;;;;;5073934;28;20596;-72
2020/12/09 00:17:10;;;;;;;25.03;13.10;;;-0.20;99.90;;;;;;5080751;28;20669;-72
2020/12/09 00:19:36;;;;;;;22.00;12.83;;;-0.20;99.90;;;;;;5089111;28;20209;-72
2020/12/09 00:22:03;;;;;;;26.63;13.67;;;-0.20;99.90;;;;;;5087322;28;20217;-73
2020/12/09 00:24:29;;;;;;;25.97;13.07;;;-0.20;99.90;;;;;;5074475;28;20202;-71
2020/12/09 00:26:56;;;;;;;26.37;13.53;;;-0.20;99.90;;;;;;5077591;28;20211;-72
2020/12/09 00:29:22;;;;;;;24.33;13.07;;;-0.20;99.90;;;;;;5091914;28;20212;-71
2020/12/09 00:31:49;;;;;;;28.40;14.63;;;-0.20;99.90;;;;;;5076543;28;20240;-72
2020/12/09 00:34:15;;;;;;;24.20;12.67;;;-0.30;99.90;;;;;;5077619;28;20206;-74
2020/12/09 00:36:43;;;;;;;26.27;13.43;;;-0.20;99.90;;;;;;5073938;28;20220;-72
2020/12/09 00:39:09;;;;;;;23.63;13.33;;;-0.30;99.90;;;;;;5081679;28;20233;-71
2020/12/09 00:41:35;;;;;;;25.27;12.97;;;-0.30;99.90;;;;;;5073967;28;20561;-71
2020/12/09 00:44:01;;;;;;;27.20;14.30;;;-0.30;99.90;;;;;;5078514;28;20205;-73
2020/12/09 00:46:28;;;;;;;26.63;13.97;;;-0.40;99.90;;;;;;5071224;28;20209;-71
2020/12/09 00:48:56;;;;;;;23.10;13.57;;;-0.40;99.90;;;;;;5071777;28;20204;-72
2020/12/09 00:51:24;;;;;;;26.87;13.67;;;-0.40;99.90;;;;;;5077818;28;20229;-72
2020/12/09 00:53:50;;;;;;;28.07;14.70;;;-0.40;99.90;;;;;;5078431;28;20646;-71
2020/12/09 00:56:17;;;;;;;27.87;14.00;;;-0.40;99.90;;;;;;5072138;28;20569;-72
2020/12/09 00:58:43;;;;;;;25.47;13.77;;;-0.40;99.90;;;;;;5073304;28;20206;-71
2020/12/09 01:01:12;;;;;;;25.43;13.10;;;-0.40;99.90;;;;;;5076738;28;20580;-71
2020/12/09 01:03:38;;;;;;;30.73;14.17;;;-0.40;99.90;;;;;;5081820;28;20204;-72
2020/12/09 01:06:06;;;;;;;20.50;10.57;;;-0.40;99.90;;;;;;5068844;28;20217;-72
2020/12/09 01:08:33;;;;;;;27.43;13.67;;;-0.50;99.90;;;;;;5084670;28;20215;-72
2020/12/09 01:11:00;;;;;;;27.83;13.70;;;-0.50;99.90;;;;;;5078701;28;20229;-71
2020/12/09 01:13:26;;;;;;;26.00;12.43;;;-0.50;99.90;;;;;;5072253;28;20280;-72
2020/12/09 01:15:52;;;;;;;23.87;13.43;;;-0.50;99.90;;;;;;5075311;28;20216;-71
2020/12/09 01:18:19;;;;;;;30.63;13.73;;;-0.50;99.90;;;;;;5073534;28;20646;-72
2020/12/09 01:20:45;;;;;;;25.40;13.03;;;-0.50;99.90;;;;;;5082753;28;20204;-73
2020/12/09 01:23:14;;;;;;;23.23;13.07;;;-0.50;99.90;;;;;;5074453;28;20760;-71
2020/12/09 01:25:40;;;;;;;25.93;13.63;;;-0.50;99.90;;;;;;5086298;28;20211;-72
2020/12/09 01:28:07;;;;;;;27.10;13.83;;;-0.50;99.90;;;;;;5071253;28;20244;-71
2020/12/09 01:30:34;;;;;;;28.30;13.47;;;-0.50;99.90;;;;;;5072582;28;20212;-72
2020/12/09 01:33:00;;;;;;;23.53;12.87;;;-0.50;99.90;;;;;;5082716;28;20205;-72
2020/12/09 01:35:27;;;;;;;27.87;13.60;;;-0.50;99.90;;;;;;5084932;28;20211;-72
2020/12/09 01:37:54;;;;;;;25.43;13.73;;;-0.50;99.90;;;;;;5087928;28;20207;-73
2020/12/09 01:40:21;;;;;;;22.87;13.43;;;-0.50;99.90;;;;;;5078758;28;20242;-72
2020/12/09 01:42:49;;;;;;;25.40;13.13;;;-0.50;99.90;;;;;;5072506;28;20718;-71
2020/12/09 01:45:15;;;;;;;23.33;13.07;;;-0.50;99.90;;;;;;5083520;28;20223;-71
2020/12/09 01:47:44;;;;;;;24.40;13.37;;;-0.50;99.90;;;;;;5074841;28;20234;-72
2020/12/09 01:50:12;;;;;;;28.10;13.73;;;-0.50;99.90;;;;;;5068477;28;20236;-71
2020/12/09 01:52:38;;;;;;;23.93;13.40;;;-0.50;99.90;;;;;;5075374;28;20757;-72
2020/12/09 01:55:05;;;;;;;25.73;13.87;;;-0.50;99.90;;;;;;5072732;28;20547;-72
2020/12/09 01:57:32;;;;;;;25.00;13.37;;;-0.50;99.90;;;;;;5082291;28;20197;-73
2020/12/09 01:59:59;;;;;;;24.37;13.20;;;-0.50;99.90;;;;;;5079850;28;20205;-71
2020/12/09 02:02:25;;;;;;;27.73;14.07;;;-0.50;99.90;;;;;;5078013;28;20212;-70
2020/12/09 02:04:53;;;;;;;24.93;13.03;;;-0.60;99.90;;;;;;5071038;28;20690;-71
2020/12/09 02:07:21;;;;;;;25.20;13.00;;;-0.50;99.90;;;;;;5072513;28;20576;-70
2020/12/09 02:09:57;;;;;;;28.07;13.27;;;-0.50;99.90;;;;;;5072182;28;20780;-70
2020/12/09 02:12:24;;;;;;;22.93;11.83;;;-0.50;99.90;;;;;;5077886;28;20255;-70
2020/12/09 02:14:51;;;;;;;27.87;14.40;;;-0.50;99.90;;;;;;5090270;28;20262;-70
2020/12/09 02:17:17;;;;;;;21.33;12.97;;;-0.60;99.90;;;;;;5090574;28;20197;-71
2020/12/09 02:19:43;;;;;;;19.20;12.47;;;-0.60;99.90;;;;;;5081088;28;20212;-70
2020/12/09 02:22:12;;;;;;;21.67;12.07;;;-0.50;99.90;;;;;;5074250;28;20292;-70
2020/12/09 02:24:38;;;;;;;24.17;12.70;;;-0.60;99.90;;;;;;5072452;28;20232;-70
2020/12/09 02:27:05;;;;;;;27.00;13.40;;;-0.60;99.90;;;;;;5075680;28;20706;-70
2020/12/09 02:29:31;;;;;;;24.50;13.33;;;-0.60;99.90;;;;;;5075404;28;20668;-70
2020/12/09 02:31:58;;;;;;;25.73;12.60;;;-0.60;99.90;;;;;;5082360;28;20233;-70
2020/12/09 02:34:24;;;;;;;27.47;13.97;;;-0.60;99.90;;;;;;5074311;28;20299;-70
2020/12/09 02:36:50;;;;;;;26.67;13.13;;;-0.60;99.90;;;;;;5074694;28;20211;-70
2020/12/09 02:39:30;;;;;;;22.10;12.20;;;-0.60;99.90;;;;;;5077462;28;20233;-71
2020/12/09 02:41:57;;;;;;;23.83;12.70;;;-0.50;99.90;;;;;;5078431;28;20202;-70
2020/12/09 02:44:23;;;;;;;24.47;12.67;;;-0.60;99.90;;;;;;5094934;28;20258;-70
2020/12/09 02:46:50;;;;;;;25.43;13.13;;;-0.50;99.90;;;;;;5084758;28;20212;-71
2020/12/09 02:49:16;;;;;;;24.53;13.07;;;-0.50;99.90;;;;;;5078619;28;20288;-70
2020/12/09 02:51:42;;;;;;;23.70;12.37;;;-0.60;99.90;;;;;;5082191;28;20312;-71
2020/12/09 02:54:09;;;;;;;21.93;12.77;;;-0.50;99.90;;;;;;5079148;28;20215;-70
2020/12/09 02:56:36;;;;;;;22.93;12.73;;;-0.50;99.90;;;;;;5077892;28;20215;-70
2020/12/09 02:59:03;;;;;;;22.43;12.93;;;-0.60;99.90;;;;;;5076813;28;20299;-70
2020/12/09 03:01:33;;;;;;;23.63;12.40;;;-0.60;99.90;;;;;;5081299;28;20201;-71
2020/12/09 03:03:59;;;;;;;19.27;12.10;;;-0.60;99.90;;;;;;5086576;28;20536;-70
2020/12/09 03:06:25;;;;;;;23.47;12.83;;;-0.60;99.90;;;;;;5074661;28;20614;-71
2020/12/09 03:08:52;;;;;;;19.93;12.23;;;-0.70;99.90;;;;;;5083028;28;21022;-70
2020/12/09 03:11:18;;;;;;;26.40;13.17;;;-0.70;99.90;;;;;;5088234;28;20228;-70
2020/12/09 03:13:45;;;;;;;20.87;12.30;;;-0.80;99.90;;;;;;5076605;28;20209;-70
2020/12/09 03:16:12;;;;;;;21.07;12.27;;;-0.80;99.90;;;;;;5080548;28;20749;-71
2020/12/09 03:18:38;;;;;;;27.87;12.73;;;-0.90;99.90;;;;;;5078062;28;20653;-70
2020/12/09 03:21:06;;;;;;;22.70;13.03;;;-0.90;99.90;;;;;;5078209;28;20287;-70
2020/12/09 03:23:34;;;;;;;22.37;12.20;;;-0.90;99.90;;;;;;5078825;28;20214;-70
2020/12/09 03:26:00;;;;;;;20.57;11.53;;;-0.80;99.90;;;;;;5084633;28;20597;-71
2020/12/09 03:28:27;;;;;;;23.93;12.83;;;-0.90;99.90;;;;;;5085530;28;20639;-70
2020/12/09 03:30:55;;;;;;;23.80;12.37;;;-0.90;99.90;;;;;;5073540;28;20205;-70
2020/12/09 03:33:21;;;;;;;21.73;10.97;;;-0.90;99.90;;;;;;5078626;28;20212;-70
2020/12/09 03:35:47;;;;;;;23.63;12.57;;;-0.90;99.90;;;;;;5077439;28;20568;-70
2020/12/09 03:38:14;;;;;;;19.60;11.93;;;-0.90;99.90;;;;;;5084790;28;20382;-69
2020/12/09 03:40:40;;;;;;;24.83;13.00;;;-0.90;99.90;;;;;;5083768;28;20340;-70
2020/12/09 03:43:07;;;;;;;25.97;13.00;;;-0.90;99.90;;;;;;5070559;28;20661;-70
2020/12/09 03:45:33;;;;;;;24.03;13.00;;;-1.00;99.90;;;;;;5079273;28;20219;-71
2020/12/09 03:48:00;;;;;;;22.03;12.53;;;-1.00;99.90;;;;;;5080640;28;20299;-71
2020/12/09 03:50:27;;;;;;;24.00;13.03;;;-1.00;99.90;;;;;;5080670;28;20654;-70
2020/12/09 03:52:53;;;;;;;20.70;11.43;;;-0.90;99.90;;;;;;5081842;28;20253;-70
2020/12/09 03:55:19;;;;;;;20.63;12.93;;;-1.00;99.90;;;;;;5075629;28;20208;-70
2020/12/09 03:57:46;;;;;;;23.77;12.77;;;-1.00;99.90;;;;;;5077482;28;20208;-70
2020/12/09 04:00:12;;;;;;;25.83;12.77;;;-0.90;99.90;;;;;;5072576;28;20213;-70
2020/12/09 04:02:39;;;;;;;24.97;13.17;;;-1.10;99.90;;;;;;5075108;28;20265;-70
2020/12/09 04:05:06;;;;;;;22.90;12.50;;;-1.00;99.90;;;;;;5088416;28;20219;-71
2020/12/09 04:07:33;;;;;;;23.53;13.50;;;-1.00;99.90;;;;;;5077648;28;20208;-70
2020/12/09 04:09:59;;;;;;;21.93;12.40;;;-1.00;99.90;;;;;;5075323;28;20209;-70
2020/12/09 04:12:25;;;;;;;20.23;11.30;;;-1.00;99.90;;;;;;5073413;28;20649;-71
2020/12/09 04:14:52;;;;;;;26.73;13.33;;;-1.00;99.90;;;;;;5079855;28;20575;-71
2020/12/09 04:17:18;;;;;;;20.83;11.17;;;-1.10;99.90;;;;;;5070002;28;20376;-69
2020/12/09 04:19:46;;;;;;;20.37;12.23;;;-1.10;99.90;;;;;;5075728;28;20426;-70
2020/12/09 04:22:13;;;;;;;21.33;12.03;;;-1.10;99.90;;;;;;5073113;28;20205;-70
2020/12/09 04:24:39;;;;;;;21.47;12.93;;;-1.10;99.90;;;;;;5077581;28;20201;-70
2020/12/09 04:27:06;;;;;;;27.17;12.07;;;-1.20;99.90;;;;;;5074292;28;20705;-70
2020/12/09 04:29:32;;;;;;;24.90;12.27;;;-1.10;99.90;;;;;;5072192;28;20206;-71
2020/12/09 04:31:59;;;;;;;25.23;12.43;;;-1.10;99.90;;;;;;5073679;28;20316;-69
2020/12/09 04:34:26;;;;;;;23.17;12.77;;;-1.10;99.90;;;;;;5073818;28;20291;-69
2020/12/09 04:36:54;;;;;;;21.43;12.27;;;-1.20;99.90;;;;;;5084436;28;20657;-70
2020/12/09 04:39:21;;;;;;;23.97;12.97;;;-1.20;99.90;;;;;;5070493;28;20243;-70
2020/12/09 04:41:48;;;;;;;25.83;12.37;;;-1.10;99.90;;;;;;5075326;28;20201;-70
2020/12/09 04:44:14;;;;;;;22.43;12.63;;;-1.20;99.90;;;;;;5078340;28;20209;-70
2020/12/09 04:46:44;;;;;;;22.37;12.30;;;-1.20;99.90;;;;;;5078676;28;20206;-70
2020/12/09 04:49:14;;;;;;;22.17;11.43;;;-1.20;99.90;;;;;;5073822;28;20247;-70
2020/12/09 04:52:15;;;;;;;21.93;11.40;;;-1.20;99.90;;;;;;5072266;28;20217;-70
2020/12/09 04:54:43;;;;;;;22.23;12.17;;;-1.20;99.90;;;;;;5076347;28;20208;-69
2020/12/09 04:57:12;;;;;;;25.20;13.07;;;-1.20;99.90;;;;;;5088424;28;20240;-70
2020/12/09 04:59:43;;;;;;;22.23;11.67;;;-1.20;99.90;;;;;;5078393;28;20296;-70
2020/12/09 05:02:10;;;;;;;21.40;12.03;;;-1.20;99.90;;;;;;5081153;28;20212;-70
2020/12/09 05:04:38;;;;;;;24.10;13.03;;;-1.20;99.90;;;;;;5080242;28;20219;-70
2020/12/09 05:07:08;;;;;;;21.07;11.67;;;-1.30;99.90;;;;;;5085414;28;20207;-70
2020/12/09 05:09:42;;;;;;;20.60;12.30;;;-1.20;99.90;;;;;;5083968;28;20200;-70
2020/12/09 05:12:12;;;;;;;24.87;13.43;;;-1.20;99.90;;;;;;5072311;28;20274;-69
2020/12/09 05:14:45;;;;;;;25.23;12.50;;;-1.30;99.90;;;;;;5079750;28;20197;-70
2020/12/09 05:17:15;;;;;;;25.97;12.53;;;-1.30;99.90;;;;;;5073502;28;20568;-70
2020/12/09 05:19:45;;;;;;;21.47;12.33;;;-1.30;99.90;;;;;;5083603;28;20205;-70
2020/12/09 05:22:16;;;;;;;22.23;12.13;;;-1.30;99.90;;;;;;5081952;28;20197;-69
2020/12/09 05:24:43;;;;;;;25.53;13.10;;;-1.30;99.90;;;;;;5073338;28;20209;-70
2020/12/09 05:27:10;;;;;;;19.00;11.97;;;-1.30;99.90;;;;;;5070158;28;20613;-69
2020/12/09 05:29:45;;;;;;;24.57;13.33;;;-1.30;99.90;;;;;;5087175;28;20647;-71
2020/12/09 05:32:11;;;;;;;23.87;12.40;;;-1.30;99.90;;;;;;5084038;28;20657;-71
2020/12/09 05:34:38;;;;;;;23.53;13.67;;;-1.30;99.90;;;;;;5084636;28;20196;-70
2020/12/09 05:37:06;;;;;;;23.10;12.33;;;-1.30;99.90;;;;;;5068632;28;20223;-71
2020/12/09 05:39:33;;;;;;;28.90;13.13;;;-1.30;99.90;;;;;;5080484;28;20233;-70
2020/12/09 05:42:14;;;;;;;20.47;11.43;;;-1.20;99.90;;;;;;5079831;28;20207;-71
2020/12/09 05:44:42;;;;;;;18.60;11.13;;;-1.20;99.90;;;;;;5075048;28;20295;-70
2020/12/09 05:47:08;;;;;;;26.33;13.20;;;-1.30;99.90;;;;;;5082344;28;20676;-70
2020/12/09 05:49:37;;;;;;;20.33;11.60;;;-1.30;99.90;;;;;;5076881;28;20239;-70
2020/12/09 05:52:15;;;;;;;21.63;12.27;;;-1.30;99.90;;;;;;5083963;28;20231;-70
2020/12/09 05:54:43;;;;;;;20.40;11.00;;;-1.20;99.90;;;;;;5087422;28;20201;-70
2020/12/09 05:57:12;;;;;;;23.30;12.23;;;-1.20;99.90;;;;;;5076546;28;20376;-69
2020/12/09 05:59:40;;;;;;;24.57;12.80;;;-1.30;99.90;;;;;;5080857;28;20205;-70
2020/12/09 06:02:12;;;;;;;21.50;12.30;;;-1.30;99.90;;;;;;5086197;28;20196;-71
2020/12/09 06:04:53;;;;;;;22.90;12.60;;;-1.30;99.90;;;;;;5085328;28;20652;-71
2020/12/09 06:07:21;;;;;;;22.30;10.40;;;-1.30;99.90;;;;;;5076138;28;20198;-70
2020/12/09 06:10:12;;;;;;;24.53;12.07;;;-1.40;99.90;;;;;;5074359;28;20207;-70
2020/12/09 06:12:56;;;;;;;23.30;12.57;;;-1.40;99.90;;;;;;5089138;28;20232;-70
2020/12/09 06:15:25;;;;;;;18.73;11.47;;;-1.40;99.90;;;;;;5076863;28;20237;-70
2020/12/09 06:18:03;;;;;;;26.57;12.23;;;-1.40;99.90;;;;;;5077705;28;20205;-70
2020/12/09 06:20:30;;;;;;;27.03;12.23;;;-1.40;99.90;;;;;;5081229;28;20209;-70
2020/12/09 06:22:57;;;;;;;21.13;12.63;;;-1.40;99.90;;;;;;5086660;28;20198;-71
2020/12/09 06:25:23;;;;;;;27.70;13.13;;;-1.40;99.90;;;;;;5085231;28;20216;-70
2020/12/09 06:27:51;;;;;;;25.13;12.93;;;-1.40;99.90;;;;;;5083249;28;20296;-70
2020/12/09 06:30:27;;;;;;;27.37;12.80;;;-1.40;99.90;;;;;;5075713;28;20212;-70
2020/12/09 06:32:54;;;;;;;22.50;12.67;;;-1.30;99.90;;;;;;5078268;28;20308;-69
2020/12/09 06:35:22;;;;;;;24.23;12.77;;;-1.30;99.90;;;;;;5078725;28;20723;-71
2020/12/09 06:38:16;;;;;;;24.53;12.40;;;-1.30;99.90;;;;;;5075142;28;20287;-70
2020/12/09 06:41:11;;;;;;;23.47;13.77;;;-1.20;99.90;;;;;;5081646;28;20313;-70
2020/12/09 06:43:38;;;;;;;18.73;10.83;;;-1.20;99.90;;;;;;5078846;28;20200;-71
2020/12/09 06:46:06;;;;;;;24.17;12.33;;;-1.20;99.90;;;;;;5083978;28;20209;-71
2020/12/09 06:48:39;;;;;;;25.47;12.77;;;-1.20;99.90;;;;;;5085573;28;20229;-71
2020/12/09 06:51:37;;;;;;;24.43;12.40;;;-1.20;99.90;;;;;;5076217;28;20243;-70
2020/12/09 06:54:16;;;;;;;23.53;11.80;;;-1.20;99.90;;;;;;5081285;28;20649;-70
2020/12/09 06:56:43;;;;;;;22.60;12.23;;;-1.20;99.90;;;;;;5082759;28;20390;-70
2020/12/09 06:59:28;;;;;;;25.93;12.20;;;-1.20;99.90;;;;;;5083346;28;20206;-70
2020/12/09 07:02:06;;;;;;;25.03;12.43;;;-1.20;99.90;;;;;;5083786;28;20232;-70
2020/12/09 07:05:04;;;;;;;28.80;13.30;;;-1.20;99.90;;;;;;5086617;28;20203;-71
2020/12/09 07:07:32;;;;;;;24.30;12.10;;;-1.20;99.90;;;;;;5073926;28;20209;-69
2020/12/09 07:10:01;;;;;;;28.00;12.50;;;-1.20;99.90;;;;;;5073938;28;20288;-71
2020/12/09 07:12:29;;;;;;;22.93;12.23;;;-1.20;99.90;;;;;;5085383;28;20261;-78
2020/12/09 07:14:57;;;;;;;22.57;12.30;;;-1.20;99.90;;;;;;5081333;28;20205;-78
2020/12/09 07:17:26;;;;;;;25.03;12.67;;;-1.20;99.90;;;;;;5091312;28;20208;-80
2020/12/09 07:19:53;;;;;;;24.43;12.83;;;-1.10;99.90;;;;;;5083627;28;20233;-80
2020/12/09 07:22:19;;;;;;;24.63;12.67;;;-1.10;99.90;;;;;;5085557;28;20194;-77
2020/12/09 07:24:46;;;;;;;22.40;12.53;;;-1.20;99.90;;;;;;5088409;28;20243;-79
2020/12/09 07:27:13;;;;;;;24.33;11.97;;;-1.20;99.90;;;;;;5085927;28;20202;-78
2020/12/09 07:29:44;;;;;;;22.67;12.87;;;-1.20;99.90;;;;;;5087091;28;20211;-80
2020/12/09 07:32:11;;;;;;;23.97;13.33;;;-1.20;99.90;;;;;;5102599;28;20212;-78
2020/12/09 07:34:56;;;;;;;26.13;12.77;;;-1.20;99.90;;;;;;5089978;28;20232;-79
2020/12/09 07:37:24;;;;;;;21.73;12.17;;;-1.20;99.90;;;;;;5068748;28;20217;-77
2020/12/09 07:39:53;;;;;;;23.97;13.20;;;-1.20;99.90;;;;;;5094369;28;20680;-79
2020/12/09 07:42:21;;;;;;;24.40;14.00;;;-1.20;99.90;;;;;;5083153;28;20593;-77
2020/12/09 07:44:49;;;;;;;22.17;12.30;;;-1.20;99.90;;;;;;5087894;28;20227;-80
2020/12/09 07:47:23;;;;;;;24.90;12.20;;;-1.30;99.90;;;;;;5090264;28;20726;-78
2020/12/09 07:50:03;;;;;;;20.87;12.53;;;-1.30;99.90;;;;;;5082276;28;20228;-78
2020/12/09 07:52:32;;;;;;;24.47;12.20;;;-1.20;99.90;;;;;;5075235;28;20289;-80
2020/12/09 07:55:00;;;;;;;26.67;13.43;;;-1.30;99.90;;;;;;5083345;28;20651;-78
2020/12/09 07:57:32;;;;;;;26.57;12.87;;;-1.20;99.90;;;;;;5081153;28;20202;-80
2020/12/09 07:59:59;;;;;;;26.90;13.30;;;-1.20;99.90;;;;;;5087046;28;20205;-79
2020/12/09 08:02:28;;;;;;;24.60;12.73;;;-1.00;99.90;;;;;;5087233;28;20256;-79
2020/12/09 08:05:17;;;;;;;22.33;11.80;;;-1.20;99.90;;;;;;5092688;28;20201;-77
2020/12/09 08:07:57;;;;;;;21.83;12.73;;;-1.20;99.90;;;;;;5079114;28;20198;-77
2020/12/09 08:10:28;;;;;;;23.57;12.20;;;-1.20;99.90;;;;;;5077858;28;20201;-72
2020/12/09 08:13:03;;;;;;;29.43;13.63;;;-1.20;99.90;;;;;;5074031;28;20232;-78
2020/12/09 08:15:30;;;;;;;23.10;11.93;;;-1.20;99.90;;;;;;5077230;28;20201;-71
2020/12/09 08:17:59;;;;;;;26.30;12.63;;;-1.20;99.90;;;;;;5077549;28;20208;-73
2020/12/09 08:20:28;;;;;;;24.43;12.57;;;-1.20;99.90;;;;;;5084799;28;20625;-73
2020/12/09 08:22:59;;;;;;;24.97;13.10;;;-1.10;99.90;;;;;;5083694;28;20204;-74
2020/12/09 08:25:28;;;;;;;23.93;13.33;;;-1.10;99.90;;;;;;5079838;28;20200;-72
2020/12/09 08:27:56;;;;;;;22.47;12.00;;;-1.00;99.90;;;;;;5086504;28;20236;-75
2020/12/09 08:30:24;;;;;;;24.50;12.33;;;-1.10;99.90;;;;;;5075337;28;20224;-76
2020/12/09 08:33:20;;;;;;;19.37;11.17;;;-1.10;99.90;;;;;;5086379;28;20340;-78
2020/12/09 08:35:57;;;;;;;22.77;12.00;;;-1.10;99.90;;;;;;5068650;28;20739;-72
2020/12/09 08:38:58;;;;;;;23.47;12.30;;;-1.10;99.90;;;;;;5072691;28;20232;-78
2020/12/09 08:41:26;;;;;;;21.80;12.17;;;-1.10;99.90;;;;;;5080031;28;20204;-77
2020/12/09 08:43:58;;;;;;;21.30;11.50;;;-1.10;99.90;;;;;;5082781;28;20208;-79
2020/12/09 08:46:27;;;;;;;25.30;13.67;;;-1.10;99.90;;;;;;5083601;28;20211;-78
2020/12/09 08:48:54;;;;;;;22.90;11.57;;;-1.10;99.90;;;;;;5079849;28;20678;-73
2020/12/09 08:51:26;;;;;;;26.67;12.57;;;-1.10;99.90;;;;;;5072964;28;20709;-71
2020/12/09 08:53:53;;;;;;;23.00;12.53;;;-1.00;99.90;;;;;;5075188;28;20304;-73
2020/12/09 08:56:25;;;;;;;22.53;12.33;;;-1.10;99.90;;;;;;5073689;28;20295;-74
2020/12/09 08:58:52;;;;;;;25.00;12.10;;;-1.00;99.90;;;;;;5074216;28;20624;-72
2020/12/09 09:01:18;;;;;;;20.63;11.97;;;-1.00;99.90;;;;;;5072500;28;20201;-76
2020/12/09 09:03:47;;;;;;;24.60;12.63;;;-1.00;99.90;;;;;;5082086;28;20197;-74
2020/12/09 09:06:13;;;;;;;21.73;11.77;;;-1.00;99.90;;;;;;5074318;28;20292;-72
2020/12/09 09:08:40;;;;;;;22.03;12.97;;;-1.00;99.90;;;;;;5069952;28;20240;-73
2020/12/09 09:11:07;;;;;;;21.47;10.80;;;-0.90;99.90;;;;;;5074300;28;20209;-72
2020/12/09 09:13:33;;;;;;;23.97;11.57;;;-0.90;99.90;;;;;;5072733;28;20284;-72
2020/12/09 09:16:06;;;;;;;22.17;11.10;;;-0.90;99.90;;;;;;5073719;28;20201;-71
2020/12/09 09:18:32;;;;;;;24.17;12.47;;;-0.90;99.90;;;;;;5077802;28;20583;-71
2020/12/09 09:20:58;;;;;;;25.03;11.77;;;-1.00;99.90;;;;;;5077912;28;20205;-72
2020/12/09 09:23:25;;;;;;;23.20;12.20;;;-1.00;99.90;;;;;;5072159;28;20201;-72
2020/12/09 09:25:52;;;;;;;25.10;12.27;;;-0.90;99.90;;;;;;5073534;28;20208;-71
2020/12/09 09:28:19;;;;;;;22.23;11.73;;;-1.00;99.90;;;;;;5078582;28;20288;-71
2020/12/09 09:30:45;;;;;;;20.47;11.60;;;-0.90;99.90;;;;;;5070209;28;20212;-72
2020/12/09 09:33:12;;;;;;;20.37;11.97;;;-0.80;99.90;;;;;;5070518;28;20256;-73
2020/12/09 09:35:38;;;;;;;23.40;12.30;;;-0.80;99.90;;;;;;5069814;28;20264;-74
2020/12/09 09:38:05;;;;;;;21.53;12.33;;;-0.80;99.90;;;;;;5071510;28;20292;-73
2020/12/09 09:40:31;;;;;;;23.70;11.67;;;-0.80;99.90;;;;;;5075322;28;20211;-73
2020/12/09 09:42:58;;;;;;;20.13;11.50;;;-0.80;99.90;;;;;;5066890;28;20209;-72
2020/12/09 09:45:25;;;;;;;21.57;11.50;;;-0.80;99.90;;;;;;5071847;28;20725;-73
2020/12/09 09:47:52;;;;;;;20.37;11.53;;;-0.70;99.90;;;;;;5072280;28;20620;-73
2020/12/09 09:50:23;;;;;;;25.37;12.77;;;-0.80;99.90;;;;;;5080318;28;20287;-72
2020/12/09 09:52:50;;;;;;;21.30;11.07;;;-0.70;99.90;;;;;;5081137;28;20237;-72
2020/12/09 09:55:17;;;;;;;21.67;11.83;;;-0.70;99.90;;;;;;5068618;28;20208;-72
2020/12/09 09:57:44;;;;;;;22.40;11.93;;;-0.70;99.90;;;;;;5067330;28;20215;-72
2020/12/09 10:00:11;;;;;;;21.83;12.77;;;-0.70;99.90;;;;;;5077065;28;20224;-73
2020/12/09 10:02:37;;;;;;;23.20;12.93;;;-0.70;99.90;;;;;;5072417;28;20238;-72
2020/12/09 10:05:04;;;;;;;21.40;11.37;;;-0.70;99.90;;;;;;5078138;28;20239;-73
2020/12/09 10:07:30;;;;;;;20.57;12.13;;;-0.60;99.90;;;;;;5070101;28;20639;-71
2020/12/09 10:10:01;;;;;;;24.83;11.77;;;-0.70;99.90;;;;;;5072616;28;20630;-72
2020/12/09 10:12:27;;;;;;;24.17;11.97;;;-0.60;99.90;;;;;;5076393;28;20232;-73
2020/12/09 10:14:54;;;;;;;25.93;11.93;;;-0.70;99.90;;;;;;5071386;28;20236;-72
2020/12/09 10:17:21;;;;;;;23.17;12.73;;;-0.70;99.90;;;;;;5080402;28;20197;-72
2020/12/09 10:19:47;;;;;;;25.40;13.60;;;-0.60;99.90;;;;;;5072933;28;20288;-73
2020/12/09 10:22:14;;;;;;;13.87;7.17;;;-0.70;99.90;;;;;;5070814;28;20206;-72
2020/12/09 10:24:40;;;;;;;28.73;14.00;;;-0.70;99.90;;;;;;5080417;28;20237;-75
2020/12/09 10:27:06;;;;;;;20.03;12.23;;;-0.80;99.90;;;;;;5076478;28;20216;-73
2020/12/09 10:29:33;;;;;;;22.07;12.43;;;-0.80;99.90;;;;;;5084497;28;20516;-73
2020/12/09 10:31:59;;;;;;;25.53;13.20;;;-0.80;99.90;;;;;;5073642;28;20308;-72
2020/12/09 10:34:26;;;;;;;21.87;10.23;;;-0.70;99.90;;;;;;5071392;28;20280;-74
2020/12/09 10:36:53;;;;;;;25.07;12.90;;;-0.70;99.90;;;;;;5079600;28;20213;-74
2020/12/09 10:39:22;;;;;;;22.80;12.60;;;-0.70;99.90;;;;;;5082638;28;20238;-73
2020/12/09 10:41:49;;;;;;;26.43;12.20;;;-0.60;99.90;;;;;;5079700;28;20213;-74
2020/12/09 10:44:16;;;;;;;25.03;12.27;;;-0.60;99.90;;;;;;5085934;28;20236;-72
2020/12/09 10:46:42;;;;;;;25.30;12.53;;;-0.50;99.90;;;;;;5075803;28;20269;-73
2020/12/09 10:49:11;;;;;;;23.50;12.63;;;-0.60;99.90;;;;;;5077077;28;20232;-71
2020/12/09 10:51:44;;;;;;;22.40;12.60;;;-0.60;99.90;;;;;;5081122;28;20654;-72
2020/12/09 10:54:11;;;;;;;21.50;11.37;;;-0.60;99.90;;;;;;5077794;28;20276;-72
2020/12/09 10:56:37;;;;;;;30.03;13.53;;;-0.60;99.90;;;;;;5077548;28;20241;-73
2020/12/09 10:59:04;;;;;;;24.03;12.67;;;-0.60;99.90;;;;;;5077662;28;20209;-73
2020/12/09 11:01:32;;;;;;;23.93;12.57;;;-0.60;99.90;;;;;;5076971;28;20792;-71
2020/12/09 11:03:59;;;;;;;25.17;12.67;;;-0.60;99.90;;;;;;5072539;28;20292;-71
2020/12/09 11:06:29;;;;;;;25.27;13.27;;;-0.60;99.90;;;;;;5075198;28;20209;-72
2020/12/09 11:08:57;;;;;;;25.87;13.50;;;-0.60;99.90;;;;;;5075172;28;20673;-71
2020/12/09 11:11:24;;;;;;;21.97;12.27;;;-0.50;99.90;;;;;;5073990;28;20308;-75
2020/12/09 11:13:51;;;;;;;26.63;13.67;;;-0.50;99.90;;;;;;5071671;28;20228;-72
2020/12/09 11:16:18;;;;;;;24.27;12.90;;;-0.50;99.90;;;;;;5072747;28;20646;-71
2020/12/09 11:18:45;;;;;;;28.23;13.47;;;-0.50;99.90;;;;;;5077679;28;20565;-70
2020/12/09 11:21:16;;;;;;;25.47;11.67;;;-0.50;99.90;;;;;;5076649;28;20396;-73
2020/12/09 11:23:42;;;;;;;23.37;12.10;;;-0.40;99.90;;;;;;5071497;28;20205;-73
2020/12/09 11:26:09;;;;;;;27.97;12.63;;;-0.40;99.90;;;;;;5074047;28;20209;-72
2020/12/09 11:28:36;;;;;;;25.57;13.33;;;-0.40;99.90;;;;;;5077420;28;20727;-72
2020/12/09 11:31:03;;;;;;;26.53;13.53;;;-0.40;99.90;;;;;;5075651;28;20236;-71
2020/12/09 11:33:29;;;;;;;19.20;11.90;;;-0.40;99.90;;;;;;5077250;28;20225;-72
2020/12/09 11:35:56;;;;;;;23.70;13.33;;;-0.40;99.90;;;;;;5074454;28;20209;-72
2020/12/09 11:38:23;;;;;;;28.53;13.23;;;-0.30;99.90;;;;;;5072019;28;20698;-71
2020/12/09 11:40:50;;;;;;;28.20;12.67;;;-0.30;99.90;;;;;;5076803;28;20201;-73
2020/12/09 11:43:17;;;;;;;24.57;12.73;;;-0.30;99.90;;;;;;5073560;28;20209;-72
2020/12/09 11:45:43;;;;;;;23.03;12.63;;;-0.30;99.90;;;;;;5078801;28;20201;-73
2020/12/09 11:48:10;;;;;;;27.97;13.17;;;-0.30;99.90;;;;;;5069460;28;21510;-71
2020/12/09 11:50:36;;;;;;;22.43;12.93;;;-0.40;99.90;;;;;;5077956;28;20259;-71
2020/12/09 11:53:02;;;;;;;29.27;12.83;;;-0.40;99.90;;;;;;5075349;28;20325;-72
2020/12/09 11:55:29;;;;;;;30.57;13.40;;;-0.40;99.90;;;;;;5079536;28;20247;-72
2020/12/09 11:57:55;;;;;;;29.57;13.53;;;-0.40;99.90;;;;;;5075806;28;20277;-72
2020/12/09 12:00:22;;;;;;;24.93;13.57;;;-0.40;99.90;;;;;;5075027;28;20209;-71
2020/12/09 12:02:50;;;;;;;24.23;12.50;;;-0.40;99.90;;;;;;5073191;28;20213;-71
2020/12/09 12:05:21;;;;;;;24.87;13.27;;;-0.40;99.90;;;;;;5074736;28;20300;-71
2020/12/09 12:07:47;;;;;;;25.83;12.83;;;-0.40;99.90;;;;;;5075330;28;20283;-72
2020/12/09 12:10:14;;;;;;;31.17;14.37;;;-0.40;99.90;;;;;;5075630;28;20290;-72
2020/12/09 12:12:40;;;;;;;29.47;13.60;;;-0.40;99.90;;;;;;5080469;28;20757;-72
2020/12/09 12:15:07;;;;;;;30.27;14.87;;;-0.40;99.90;;;;;;5074905;28;20635;-72
2020/12/09 12:17:35;;;;;;;24.93;13.37;;;-0.40;99.90;;;;;;5075325;28;20216;-72
2020/12/09 12:20:01;;;;;;;28.43;15.00;;;-0.40;99.90;;;;;;5066172;28;20297;-72
2020/12/09 12:22:27;;;;;;;28.37;13.93;;;-0.40;99.90;;;;;;5065310;28;20671;-72
2020/12/09 12:24:55;;;;;;;25.50;14.23;;;-0.40;99.90;;;;;;5069243;28;20209;-71
2020/12/09 12:27:22;;;;;;;28.90;14.33;;;-0.30;99.90;;;;;;5074989;28;20215;-72
2020/12/09 12:29:48;;;;;;;25.90;13.83;;;-0.30;99.90;;;;;;5075145;28;20201;-71
2020/12/09 12:32:14;;;;;;;26.97;14.10;;;-0.30;99.90;;;;;;5067746;28;20320;-72
2020/12/09 12:34:42;;;;;;;26.17;14.53;;;-0.30;99.90;;;;;;5084283;28;20208;-73